This is the latest recevied weather packets stored in our database for station/object K5RWS. If no packets are shown the sender has not sent any weather packets the latest 1 day(s).
| Time | Temp. | Humidity | Pressure | Rain* | Wind** | Luminosity | Snow |
|---|---|---|---|---|---|---|---|
| 1777996548 | 12.78° C | 48% | 1014.9 hPa | 0 mm | 3.13 m/s, 293° | 169 W/m² | - |
| 1777996245 | 12.78° C | 46% | 1015 hPa | 0 mm | 3.13 m/s, 298° | 157 W/m² | - |
| 1777995941 | 12.78° C | 48% | 1015 hPa | 0 mm | 2.68 m/s, 312° | 176 W/m² | - |
| 1777995637 | 12.22° C | 49% | 1014.9 hPa | 0 mm | 3.13 m/s, 295° | 154 W/m² | - |
| 1777995335 | 12.22° C | 50% | 1015 hPa | 0 mm | 2.68 m/s, 269° | 183 W/m² | - |
| 1777995032 | 12.22° C | 50% | 1015.2 hPa | 0 mm | 2.68 m/s, 279° | 184 W/m² | - |
| 1777994729 | 11.67° C | 51% | 1015.4 hPa | 0 mm | 4.92 m/s, 323° | 168 W/m² | - |
| 1777994424 | 12.22° C | 52% | 1015.3 hPa | 0 mm | 4.92 m/s, 285° | 185 W/m² | - |
| 1777994119 | 11.67° C | 54% | 1015.3 hPa | 0 mm | 4.92 m/s, 292° | 174 W/m² | - |
| 1777993817 | 11.67° C | 56% | 1015.2 hPa | 0 mm | 4.92 m/s, 299° | 150 W/m² | - |
| 1777993513 | 11.67° C | 58% | 1015.3 hPa | 0 mm | 4.02 m/s, 264° | 131 W/m² | - |
| 1777993210 | 11.67° C | 59% | 1015 hPa | 0 mm | 3.13 m/s, 333° | 149 W/m² | - |
| 1777992906 | 11.67° C | 61% | 1015.4 hPa | 0 mm | 4.47 m/s, 265° | 105 W/m² | - |
| 1777992604 | 11.67° C | 61% | 1015.3 hPa | 0 mm | 6.26 m/s, 285° | 117 W/m² | - |
| 1777992302 | 11.67° C | 61% | 1015.2 hPa | 0 mm | 4.02 m/s, 305° | 108 W/m² | - |
| 1777991999 | 12.22° C | 56% | 1015.5 hPa | 0 mm | 5.36 m/s, 257° | 79 W/m² | - |
| 1777991696 | 12.22° C | 55% | 1015.4 hPa | 0 mm | 3.13 m/s, 283° | 72 W/m² | - |
| 1777991393 | 12.22° C | 53% | 1015.5 hPa | 0 mm | 4.47 m/s, 312° | 66 W/m² | - |
| 1777991091 | 12.22° C | 53% | 1015.4 hPa | 0 mm | 4.02 m/s, 303° | 55 W/m² | - |
| 1777990788 | 12.22° C | 52% | 1015.4 hPa | 0 mm | 4.92 m/s, 298° | 51 W/m² | - |
| 1777990485 | 12.78° C | 52% | 1015.4 hPa | 0 mm | 2.68 m/s, 267° | 47 W/m² | - |
| 1777990182 | 12.78° C | 52% | 1015.3 hPa | 0 mm | 3.13 m/s, 268° | 50 W/m² | - |
| 1777989878 | 12.78° C | 52% | 1015.4 hPa | 0 mm | 3.13 m/s, 302° | 52 W/m² | - |
| 1777989575 | 12.78° C | 52% | 1015.5 hPa | 0 mm | 4.47 m/s, 328° | 43 W/m² | - |
| 1777989272 | 12.78° C | 53% | 1015.4 hPa | 0 mm | 3.13 m/s, 302° | 50 W/m² | - |
* Rain latest hour (hover to see other rain measurements)
** Current wind speed in m/s (hover to see current wind gust speed)